Time;durP1;ratioP1;P1;durP2;ratioP2;P2;SDS_P1;SDS_P2;PMS_P1;PMS_P2;Temp;Humidity;BMP_temperature;BMP_pressure;BME280_temperature;BME280_humidity;BME280_pressure;Samples;Min_cycle;Max_cycle;Signal;HPM_P1;HPM_P2
2022/10/30 00:01:02;;;;;;;19.23;14.63;;;12.00;99.90;;;;;;5024268;28;20629;-52
2022/10/30 00:03:30;;;;;;;20.87;17.17;;;12.00;99.90;;;;;;5026639;28;20249;-51
2022/10/30 00:05:58;;;;;;;23.20;17.73;;;12.00;99.90;;;;;;5025219;28;20223;-51
2022/10/30 00:08:25;;;;;;;22.37;17.80;;;11.90;99.90;;;;;;5031658;28;20257;-50
2022/10/30 00:10:52;;;;;;;21.50;16.33;;;11.90;99.90;;;;;;5024612;28;20253;-50
2022/10/30 00:13:20;;;;;;;22.37;17.50;;;11.80;99.90;;;;;;5021475;28;20272;-50
2022/10/30 00:15:48;;;;;;;27.10;17.60;;;11.80;99.90;;;;;;5025035;28;20634;-50
2022/10/30 00:18:16;;;;;;;21.53;17.77;;;11.70;99.90;;;;;;5027475;28;20206;-50
2022/10/30 00:20:44;;;;;;;23.80;17.00;;;11.70;99.90;;;;;;5026205;28;20198;-50
2022/10/30 00:23:11;;;;;;;24.30;18.80;;;11.70;99.90;;;;;;5017686;28;20553;-50
2022/10/30 00:25:38;;;;;;;29.00;19.10;;;11.60;99.90;;;;;;5032690;28;20607;-51
2022/10/30 00:28:06;;;;;;;23.93;19.80;;;11.60;99.90;;;;;;5025873;28;20209;-50
2022/10/30 00:30:34;;;;;;;24.40;18.27;;;11.60;99.90;;;;;;5032388;28;20630;-51
2022/10/30 00:33:01;;;;;;;21.67;17.90;;;11.60;99.90;;;;;;5014113;28;20207;-50
2022/10/30 00:35:28;;;;;;;23.23;19.30;;;11.60;99.90;;;;;;5028858;28;20238;-50
2022/10/30 00:37:56;;;;;;;20.87;17.97;;;11.60;99.90;;;;;;5029815;28;20198;-51
2022/10/30 00:40:23;;;;;;;22.73;18.17;;;11.60;99.90;;;;;;5021667;28;20198;-50
2022/10/30 00:42:50;;;;;;;24.70;19.77;;;11.60;99.90;;;;;;5025426;28;20208;-51
2022/10/30 00:45:18;;;;;;;19.60;17.50;;;11.60;99.90;;;;;;5025073;28;20214;-50
2022/10/30 00:47:50;;;;;;;25.70;17.87;;;11.60;99.90;;;;;;5033892;28;20201;-50
2022/10/30 00:50:20;;;;;;;26.40;19.50;;;11.60;99.90;;;;;;5026930;28;20667;-51
2022/10/30 00:52:51;;;;;;;22.10;17.77;;;11.70;99.90;;;;;;5029209;28;20209;-51
2022/10/30 00:55:25;;;;;;;22.80;18.90;;;11.60;99.90;;;;;;5027346;28;20286;-51
2022/10/30 00:57:53;;;;;;;19.63;17.50;;;11.60;99.90;;;;;;5033718;28;20261;-51
2022/10/30 01:00:22;;;;;;;19.87;17.70;;;11.60;99.90;;;;;;5032821;28;20289;-52
2022/10/30 01:02:51;;;;;;;23.70;18.63;;;11.50;99.90;;;;;;5024523;28;20267;-50
2022/10/30 01:05:20;;;;;;;21.50;18.33;;;11.50;99.90;;;;;;5021368;28;20274;-51
2022/10/30 01:07:47;;;;;;;22.00;18.50;;;11.50;99.90;;;;;;5031817;28;20198;-50
2022/10/30 01:10:15;;;;;;;25.90;17.67;;;11.40;99.90;;;;;;5024706;28;20241;-50
2022/10/30 01:12:46;;;;;;;24.00;17.17;;;11.40;99.90;;;;;;5024083;28;20198;-50
2022/10/30 01:15:14;;;;;;;20.20;17.07;;;11.50;99.90;;;;;;5012561;28;20696;-51
2022/10/30 01:17:59;;;;;;;18.97;16.53;;;11.30;99.90;;;;;;5012875;28;20253;-52
2022/10/30 01:20:47;;;;;;;34.03;19.53;;;11.40;99.90;;;;;;5026587;28;20258;-51
2022/10/30 01:23:25;;;;;;;26.27;18.27;;;11.40;99.90;;;;;;5018118;28;20675;-50
2022/10/30 01:26:05;;;;;;;24.53;18.80;;;11.40;99.90;;;;;;5030019;28;20224;-51
2022/10/30 01:28:53;;;;;;;26.67;18.77;;;11.40;99.90;;;;;;5028818;28;20199;-50
2022/10/30 01:31:33;;;;;;;25.87;17.33;;;11.40;99.90;;;;;;5032248;28;20210;-50
2022/10/30 01:34:10;;;;;;;17.93;14.67;;;11.30;99.90;;;;;;5023631;28;20244;-50
2022/10/30 01:36:39;;;;;;;23.47;16.97;;;11.30;99.90;;;;;;5023870;28;20651;-51
2022/10/30 01:39:13;;;;;;;24.87;17.40;;;11.30;99.90;;;;;;5032598;28;20669;-51
2022/10/30 01:41:40;;;;;;;20.87;16.03;;;11.20;99.90;;;;;;5031349;28;20671;-50
2022/10/30 01:44:12;;;;;;;24.63;18.80;;;11.20;99.90;;;;;;5025055;28;20611;-51
2022/10/30 01:47:00;;;;;;;19.60;16.27;;;11.20;99.90;;;;;;5031765;28;20307;-50
2022/10/30 01:49:59;;;;;;;20.70;16.03;;;11.20;99.90;;;;;;5024149;28;20661;-50
2022/10/30 01:52:38;;;;;;;19.97;16.20;;;11.10;99.90;;;;;;5020981;28;20202;-50
2022/10/30 01:55:13;;;;;;;20.80;17.50;;;11.10;99.90;;;;;;5012477;28;20309;-50
2022/10/30 01:57:49;;;;;;;20.00;15.80;;;11.10;99.90;;;;;;5012579;28;20557;-52
2022/10/30 02:00:19;;;;;;;23.17;17.03;;;11.10;99.90;;;;;;5016335;28;20201;-51
2022/10/30 02:02:46;;;;;;;21.90;17.07;;;11.10;99.90;;;;;;5014533;28;20205;-50
2022/10/30 02:05:21;;;;;;;19.50;16.57;;;11.10;99.90;;;;;;5012368;28;20219;-51
2022/10/30 02:07:48;;;;;;;23.47;17.53;;;11.10;99.90;;;;;;5012497;28;20260;-51
2022/10/30 02:10:15;;;;;;;22.70;15.57;;;11.10;99.90;;;;;;5016422;28;20205;-50
2022/10/30 02:12:42;;;;;;;26.00;18.50;;;11.10;99.90;;;;;;5023087;28;20201;-51
2022/10/30 02:15:11;;;;;;;20.60;17.20;;;11.10;99.90;;;;;;5020699;28;20897;-51
2022/10/30 02:17:39;;;;;;;20.43;15.83;;;11.10;99.90;;;;;;5023910;28;20251;-50
2022/10/30 02:20:07;;;;;;;17.80;16.00;;;11.20;99.90;;;;;;5022269;28;20761;-50
2022/10/30 02:22:36;;;;;;;20.27;15.17;;;11.20;99.90;;;;;;5023608;28;20204;-50
2022/10/30 02:25:03;;;;;;;19.97;15.77;;;11.30;99.90;;;;;;5015301;28;20231;-51
2022/10/30 02:27:30;;;;;;;21.67;16.83;;;11.30;99.90;;;;;;5019352;28;20684;-50
2022/10/30 02:29:59;;;;;;;21.50;15.43;;;11.30;99.90;;;;;;5021553;28;20745;-50
2022/10/30 02:32:26;;;;;;;21.40;15.00;;;11.30;99.90;;;;;;5025078;28;20202;-50
2022/10/30 02:34:52;;;;;;;21.70;16.63;;;11.40;99.90;;;;;;5030260;28;20258;-51
2022/10/30 02:37:19;;;;;;;24.80;16.30;;;11.40;99.90;;;;;;5031689;28;20232;-51
2022/10/30 02:39:48;;;;;;;26.87;16.30;;;11.40;99.90;;;;;;5031483;28;20276;-50
2022/10/30 02:42:15;;;;;;;20.80;16.83;;;11.40;99.90;;;;;;5029515;28;20256;-50
2022/10/30 02:44:42;;;;;;;22.93;16.67;;;11.40;99.90;;;;;;5019756;28;20278;-50
2022/10/30 02:47:09;;;;;;;25.87;16.83;;;11.40;99.90;;;;;;5012029;28;20205;-50
2022/10/30 02:49:36;;;;;;;23.77;16.27;;;11.40;99.90;;;;;;5013315;28;20209;-50
2022/10/30 02:52:03;;;;;;;18.17;15.60;;;11.30;99.90;;;;;;5018042;28;20253;-50
2022/10/30 02:54:30;;;;;;;21.30;15.57;;;11.20;99.90;;;;;;5027007;28;20718;-51
2022/10/30 02:56:58;;;;;;;22.37;15.40;;;11.20;99.90;;;;;;5027793;28;20225;-51
2022/10/30 02:59:25;;;;;;;25.13;16.30;;;11.10;99.90;;;;;;5025037;28;20225;-53
2022/10/30 03:01:52;;;;;;;20.50;15.67;;;11.10;99.90;;;;;;5030126;28;20204;-51
2022/10/30 03:04:19;;;;;;;19.37;14.93;;;11.10;99.90;;;;;;5022547;28;20202;-51
2022/10/30 03:06:46;;;;;;;21.17;14.63;;;11.00;99.90;;;;;;5023319;28;20249;-51
2022/10/30 03:09:13;;;;;;;21.50;15.77;;;11.00;99.90;;;;;;5023825;28;20200;-50
2022/10/30 03:11:40;;;;;;;17.33;14.77;;;10.90;99.90;;;;;;5025568;28;20275;-50
2022/10/30 03:14:08;;;;;;;17.73;14.10;;;10.90;99.90;;;;;;5027340;28;20204;-50
2022/10/30 03:16:37;;;;;;;18.07;14.83;;;10.90;99.90;;;;;;5024128;28;20269;-50
2022/10/30 03:19:04;;;;;;;21.83;14.47;;;10.90;99.90;;;;;;5011145;28;20201;-50
2022/10/30 03:21:31;;;;;;;18.13;15.60;;;10.90;99.90;;;;;;5014999;28;20195;-50
2022/10/30 03:23:58;;;;;;;19.90;16.33;;;10.90;99.90;;;;;;5023647;28;20297;-50
2022/10/30 03:26:25;;;;;;;19.20;14.40;;;10.90;99.90;;;;;;5028014;28;20213;-50
2022/10/30 03:28:56;;;;;;;21.00;15.97;;;10.90;99.90;;;;;;5029521;28;20251;-51
2022/10/30 03:31:25;;;;;;;18.80;16.17;;;10.90;99.90;;;;;;5027255;28;20287;-51
2022/10/30 03:33:55;;;;;;;16.43;14.20;;;10.80;99.90;;;;;;5022915;28;20255;-50
2022/10/30 03:36:22;;;;;;;18.93;15.53;;;10.80;99.90;;;;;;5025606;28;20229;-50
2022/10/30 03:38:49;;;;;;;17.57;15.07;;;10.80;99.90;;;;;;5026481;28;20201;-49
2022/10/30 03:41:16;;;;;;;19.20;16.50;;;10.80;99.90;;;;;;5020438;28;20275;-51
2022/10/30 03:43:43;;;;;;;20.17;16.53;;;10.80;99.90;;;;;;5022986;28;20203;-51
2022/10/30 03:46:10;;;;;;;23.53;17.80;;;10.80;99.90;;;;;;5014553;28;20272;-51
2022/10/30 03:48:39;;;;;;;17.37;15.67;;;10.80;99.90;;;;;;5014316;28;20273;-51
2022/10/30 03:51:06;;;;;;;21.33;16.47;;;10.80;99.90;;;;;;5025194;28;20218;-50
2022/10/30 03:53:33;;;;;;;16.97;15.30;;;10.80;99.90;;;;;;5031640;28;20200;-51
2022/10/30 03:56:02;;;;;;;21.07;16.50;;;10.80;99.90;;;;;;5032690;28;20286;-51
2022/10/30 03:58:29;;;;;;;15.77;13.83;;;10.80;99.90;;;;;;5033523;28;20243;-51
2022/10/30 04:01:01;;;;;;;18.90;15.87;;;10.90;99.90;;;;;;5025776;28;20637;-51
2022/10/30 04:03:28;;;;;;;16.77;15.17;;;11.00;99.90;;;;;;5032545;28;20208;-50
2022/10/30 04:05:56;;;;;;;17.07;15.17;;;10.90;99.90;;;;;;5033229;28;20220;-50
2022/10/30 04:08:23;;;;;;;19.70;14.80;;;11.00;99.90;;;;;;5033169;28;20663;-51
2022/10/30 04:10:50;;;;;;;15.43;13.87;;;10.90;99.90;;;;;;5030819;28;20261;-50
2022/10/30 04:13:20;;;;;;;14.00;12.63;;;10.80;99.90;;;;;;5024884;28;20247;-50
2022/10/30 04:15:48;;;;;;;15.90;13.90;;;10.80;99.90;;;;;;5029061;28;20220;-50
2022/10/30 04:18:16;;;;;;;14.83;13.40;;;10.80;99.90;;;;;;5030733;28;20753;-51
2022/10/30 04:20:44;;;;;;;13.57;12.17;;;10.70;99.90;;;;;;5032170;28;20205;-50
2022/10/30 04:23:14;;;;;;;15.93;14.27;;;10.70;99.90;;;;;;5032282;28;20205;-51
2022/10/30 04:25:41;;;;;;;13.90;12.50;;;10.70;99.90;;;;;;5030728;28;20773;-50
2022/10/30 04:28:08;;;;;;;14.87;13.37;;;10.70;99.90;;;;;;5032462;28;20193;-50
2022/10/30 04:30:35;;;;;;;18.47;13.67;;;10.70;99.90;;;;;;5019576;28;20268;-50
2022/10/30 04:33:04;;;;;;;14.43;12.93;;;10.70;99.90;;;;;;5013421;28;20217;-50
2022/10/30 04:35:33;;;;;;;14.27;12.87;;;10.70;99.90;;;;;;5013341;28;20235;-51
2022/10/30 04:38:01;;;;;;;14.97;13.47;;;10.70;99.90;;;;;;5020749;28;20232;-51
2022/10/30 04:40:32;;;;;;;14.20;12.80;;;10.60;99.90;;;;;;5029710;28;20245;-52
2022/10/30 04:42:59;;;;;;;14.70;13.20;;;10.60;99.90;;;;;;5031596;28;20193;-50
2022/10/30 04:45:27;;;;;;;14.70;13.00;;;10.60;99.90;;;;;;5031570;28;20642;-50
2022/10/30 04:47:59;;;;;;;15.93;13.30;;;10.60;99.90;;;;;;5031959;28;20246;-50
2022/10/30 04:50:27;;;;;;;16.17;14.23;;;10.60;99.90;;;;;;5032374;28;20801;-50
2022/10/30 04:52:59;;;;;;;15.90;14.33;;;10.60;99.90;;;;;;5032191;28;20195;-51
2022/10/30 04:55:26;;;;;;;17.13;13.77;;;10.60;99.90;;;;;;5029695;28;20703;-50
2022/10/30 04:57:57;;;;;;;14.50;13.03;;;10.60;99.90;;;;;;5023969;28;20232;-50
2022/10/30 05:00:25;;;;;;;15.93;14.20;;;10.50;99.90;;;;;;5021263;28;20301;-50
2022/10/30 05:02:52;;;;;;;22.77;14.47;;;10.50;99.90;;;;;;5028669;28;20267;-50
2022/10/30 05:05:19;;;;;;;16.13;14.53;;;10.40;99.90;;;;;;5021095;28;20640;-50
2022/10/30 05:07:46;;;;;;;16.37;14.70;;;10.50;99.90;;;;;;5013472;28;20541;-51
2022/10/30 05:10:14;;;;;;;14.80;13.20;;;10.40;99.90;;;;;;5014162;28;20209;-50
2022/10/30 05:12:42;;;;;;;13.67;12.33;;;10.40;99.90;;;;;;5024826;28;20288;-51
2022/10/30 05:15:11;;;;;;;14.60;13.03;;;10.40;99.90;;;;;;5013837;28;20750;-51
2022/10/30 05:17:39;;;;;;;15.03;13.63;;;10.40;99.90;;;;;;5026460;28;20303;-50
2022/10/30 05:20:06;;;;;;;15.40;13.87;;;10.40;99.90;;;;;;5030879;28;20262;-51
2022/10/30 05:22:34;;;;;;;17.70;14.70;;;10.50;99.90;;;;;;5032953;28;20266;-50
2022/10/30 05:25:01;;;;;;;16.63;13.73;;;10.50;99.90;;;;;;5032621;28;20228;-50
2022/10/30 05:27:28;;;;;;;22.60;17.13;;;10.50;99.90;;;;;;5033119;28;20316;-52
2022/10/30 05:29:54;;;;;;;20.30;17.83;;;10.50;99.90;;;;;;5020644;28;20205;-50
2022/10/30 05:32:23;;;;;;;21.73;16.63;;;10.60;99.90;;;;;;5015106;28;20264;-51
2022/10/30 05:34:50;;;;;;;17.50;15.17;;;10.70;99.90;;;;;;5018427;28;20293;-51
2022/10/30 05:37:17;;;;;;;16.20;14.43;;;10.70;99.90;;;;;;5032500;28;20574;-51
2022/10/30 05:39:44;;;;;;;23.37;14.90;;;10.70;99.90;;;;;;5032032;28;20694;-50
2022/10/30 05:42:11;;;;;;;22.00;13.40;;;10.80;99.90;;;;;;5028545;28;20200;-50
2022/10/30 05:44:38;;;;;;;17.23;14.47;;;10.80;99.90;;;;;;5023710;28;20220;-51
2022/10/30 05:47:05;;;;;;;17.20;14.33;;;10.80;99.90;;;;;;5032716;28;20252;-50
2022/10/30 05:49:33;;;;;;;18.43;15.07;;;10.80;99.90;;;;;;5015456;28;20205;-50
2022/10/30 05:52:00;;;;;;;20.03;15.40;;;10.90;99.90;;;;;;5014049;28;20284;-50
2022/10/30 05:54:27;;;;;;;19.73;15.37;;;11.00;99.90;;;;;;5018137;28;20206;-50
2022/10/30 05:56:54;;;;;;;16.07;14.43;;;11.00;99.90;;;;;;5032612;28;20222;-51
2022/10/30 05:59:21;;;;;;;20.53;15.63;;;11.00;99.90;;;;;;5032495;28;20251;-50
2022/10/30 06:01:48;;;;;;;30.87;15.30;;;11.00;99.90;;;;;;5032076;28;20213;-50
2022/10/30 06:04:15;;;;;;;17.80;15.40;;;11.10;99.90;;;;;;5031929;28;20248;-50
2022/10/30 06:06:43;;;;;;;18.90;14.77;;;11.20;99.90;;;;;;5032011;28;20267;-51
2022/10/30 06:09:10;;;;;;;29.27;13.53;;;11.20;99.90;;;;;;5032343;28;20625;-51
2022/10/30 06:11:37;;;;;;;22.07;14.43;;;11.20;99.90;;;;;;5026912;28;20198;-50
2022/10/30 06:14:04;;;;;;;28.90;14.30;;;11.30;99.90;;;;;;5025425;28;20260;-50
2022/10/30 06:16:31;;;;;;;16.87;13.50;;;11.30;99.90;;;;;;5016032;28;20283;-51
2022/10/30 06:18:58;;;;;;;17.00;12.63;;;11.40;99.90;;;;;;5020391;28;20206;-50
2022/10/30 06:21:25;;;;;;;14.73;12.80;;;11.40;99.90;;;;;;5027182;28;20254;-49
2022/10/30 06:23:57;;;;;;;15.40;12.97;;;11.30;99.90;;;;;;5031655;28;20209;-50
2022/10/30 06:26:24;;;;;;;16.00;12.17;;;11.40;99.90;;;;;;5023771;28;20232;-50
2022/10/30 06:28:55;;;;;;;15.00;12.53;;;11.40;99.90;;;;;;5028921;28;20248;-50
2022/10/30 06:31:22;;;;;;;22.20;13.70;;;11.50;99.90;;;;;;5026919;28;20204;-50
2022/10/30 06:33:49;;;;;;;19.50;15.40;;;11.50;99.90;;;;;;5020824;28;20216;-51
2022/10/30 06:36:17;;;;;;;21.27;16.47;;;11.50;99.90;;;;;;5022749;28;20726;-50
2022/10/30 06:38:44;;;;;;;18.47;14.80;;;11.50;99.90;;;;;;5021152;28;20305;-50
2022/10/30 06:41:12;;;;;;;17.73;14.27;;;11.60;99.90;;;;;;5024069;28;20577;-51
2022/10/30 06:43:39;;;;;;;17.70;14.27;;;11.60;99.90;;;;;;5022392;28;20807;-51
2022/10/30 06:46:06;;;;;;;17.00;13.93;;;11.60;99.90;;;;;;5024930;28;20297;-51
2022/10/30 06:48:33;;;;;;;16.17;14.40;;;11.60;99.90;;;;;;5011505;28;20249;-52
2022/10/30 06:51:02;;;;;;;14.63;13.20;;;11.70;99.90;;;;;;5011216;28;20205;-52
2022/10/30 06:53:29;;;;;;;15.03;12.90;;;11.80;99.90;;;;;;5011120;28;20230;-50
2022/10/30 06:55:57;;;;;;;13.60;12.30;;;11.80;99.90;;;;;;5015877;28;20607;-51
2022/10/30 06:58:26;;;;;;;14.43;11.53;;;11.90;99.90;;;;;;5026320;28;20719;-51
2022/10/30 07:00:54;;;;;;;12.80;11.60;;;11.90;99.90;;;;;;5029713;28;20550;-51
2022/10/30 07:03:21;;;;;;;14.03;12.60;;;12.00;99.90;;;;;;5029590;28;20259;-50
2022/10/30 07:05:48;;;;;;;19.07;14.13;;;12.10;99.90;;;;;;5030075;28;20213;-51
2022/10/30 07:08:15;;;;;;;17.50;14.03;;;12.20;99.90;;;;;;5030119;28;20199;-50
2022/10/30 07:10:42;;;;;;;20.17;14.53;;;12.20;99.90;;;;;;5029458;28;20208;-50
2022/10/30 07:13:09;;;;;;;19.50;14.27;;;12.10;99.90;;;;;;5024027;28;20671;-51
2022/10/30 07:15:38;;;;;;;15.27;13.67;;;12.10;99.90;;;;;;5031697;28;20223;-50
2022/10/30 07:18:05;;;;;;;18.20;11.87;;;12.10;99.90;;;;;;5033049;28;20216;-50
2022/10/30 07:20:34;;;;;;;14.60;13.07;;;12.00;99.90;;;;;;5025369;28;20200;-50
2022/10/30 07:23:01;;;;;;;12.83;11.53;;;12.00;99.90;;;;;;5033812;28;20201;-50
2022/10/30 07:25:28;;;;;;;20.03;13.57;;;12.00;99.90;;;;;;5033941;28;20225;-51
2022/10/30 07:27:56;;;;;;;15.63;14.13;;;12.10;99.90;;;;;;5028232;28;20255;-50
2022/10/30 07:30:25;;;;;;;15.93;13.03;;;12.20;99.90;;;;;;5033703;28;20244;-50
2022/10/30 07:33:01;;;;;;;14.97;13.40;;;12.30;99.90;;;;;;5033832;28;20199;-51
2022/10/30 07:35:29;;;;;;;12.97;11.70;;;12.50;99.90;;;;;;5017396;28;20601;-50
2022/10/30 07:37:56;;;;;;;17.77;12.47;;;12.50;99.90;;;;;;5031908;28;20228;-51
2022/10/30 07:40:23;;;;;;;14.43;12.93;;;12.50;99.90;;;;;;5032335;28;20198;-51
2022/10/30 07:42:56;;;;;;;16.13;11.20;;;12.60;99.90;;;;;;5028233;28;20201;-51
2022/10/30 07:45:23;;;;;;;13.10;11.87;;;12.80;99.90;;;;;;5025742;28;20304;-52
2022/10/30 07:47:50;;;;;;;37.07;13.63;;;12.90;99.90;;;;;;5023047;28;20202;-50
2022/10/30 07:50:18;;;;;;;29.53;12.83;;;13.00;99.90;;;;;;5033675;28;20640;-50
2022/10/30 07:52:46;;;;;;;13.87;12.50;;;12.90;99.90;;;;;;5033411;28;20201;-51
2022/10/30 07:55:13;;;;;;;13.93;12.27;;;12.90;99.90;;;;;;5025670;28;20873;-50
2022/10/30 07:57:41;;;;;;;13.00;11.70;;;12.90;99.90;;;;;;5019518;28;20561;-50
2022/10/30 08:00:11;;;;;;;14.82;13.32;;;13.00;99.90;;;;;;5016376;28;20954;-51
2022/10/30 08:02:38;;;;;;;16.02;14.52;;;13.20;99.90;;;;;;5030196;28;20493;-50
2022/10/30 08:05:06;;;;;;;29.20;13.33;;;13.50;99.90;;;;;;5027395;28;20239;-50
2022/10/30 08:07:36;;;;;;;14.80;13.27;;;13.30;99.90;;;;;;5031743;28;20664;-51
2022/10/30 08:10:04;;;;;;;19.20;17.17;;;13.30;99.90;;;;;;5022106;28;20211;-50
2022/10/30 08:12:33;;;;;;;19.93;17.80;;;13.30;99.90;;;;;;5029472;28;20205;-51
2022/10/30 08:15:00;;;;;;;15.57;13.97;;;13.30;99.90;;;;;;5023973;28;20233;-51
2022/10/30 08:17:27;;;;;;;13.43;12.17;;;13.40;99.90;;;;;;5035597;28;20277;-52
2022/10/30 08:19:55;;;;;;;11.07;10.17;;;13.30;99.90;;;;;;5023012;28;20664;-51
2022/10/30 08:22:23;;;;;;;13.37;12.10;;;13.30;99.90;;;;;;5022791;28;20275;-51
2022/10/30 08:24:51;;;;;;;13.03;11.73;;;13.30;99.90;;;;;;5024226;28;20225;-51
2022/10/30 08:27:18;;;;;;;11.90;10.77;;;13.30;99.90;;;;;;5029385;28;20205;-51
2022/10/30 08:29:46;;;;;;;12.70;11.53;;;13.40;99.90;;;;;;5017272;28;20207;-51
2022/10/30 08:32:14;;;;;;;13.47;12.10;;;13.50;99.90;;;;;;5028470;28;20202;-51
2022/10/30 08:34:41;;;;;;;14.40;12.77;;;13.60;99.90;;;;;;5029247;28;20280;-50
2022/10/30 08:37:08;;;;;;;13.37;12.23;;;13.70;99.90;;;;;;5020689;28;20245;-51
2022/10/30 08:39:35;;;;;;;12.80;11.63;;;13.70;99.90;;;;;;5029149;28;20222;-51
2022/10/30 08:42:03;;;;;;;12.73;11.37;;;13.70;99.90;;;;;;5017664;28;20210;-51
2022/10/30 08:44:30;;;;;;;13.83;12.43;;;13.70;99.90;;;;;;5020507;28;20280;-51
2022/10/30 08:46:57;;;;;;;14.30;12.07;;;13.80;99.90;;;;;;5027208;28;20199;-51
2022/10/30 08:49:24;;;;;;;13.37;12.03;;;13.90;99.90;;;;;;5028427;28;20233;-50
2022/10/30 08:51:52;;;;;;;12.67;11.37;;;13.90;99.90;;;;;;5021389;28;20284;-51
2022/10/30 08:54:19;;;;;;;16.03;11.23;;;14.00;99.90;;;;;;5014248;28;20199;-51
2022/10/30 08:56:46;;;;;;;17.27;11.00;;;14.00;99.90;;;;;;5027338;28;20656;-51
2022/10/30 08:59:14;;;;;;;13.50;11.57;;;13.90;99.90;;;;;;5015030;28;20264;-51
2022/10/30 09:01:42;;;;;;;14.63;12.53;;;13.90;99.90;;;;;;5029077;28;20207;-51
2022/10/30 09:04:09;;;;;;;14.20;12.17;;;13.90;99.90;;;;;;5024935;28;20293;-50
2022/10/30 09:06:36;;;;;;;13.13;11.67;;;13.90;99.90;;;;;;5025744;28;20198;-49
2022/10/30 09:09:03;;;;;;;14.37;13.07;;;14.00;99.90;;;;;;5022712;28;20211;-51
2022/10/30 09:11:30;;;;;;;15.77;13.03;;;13.90;99.90;;;;;;5025675;28;20199;-50
2022/10/30 09:13:58;;;;;;;13.83;12.40;;;13.90;99.90;;;;;;5022159;28;20669;-51
2022/10/30 09:16:26;;;;;;;15.10;13.23;;;13.90;99.90;;;;;;5026748;28;20234;-51
2022/10/30 09:18:56;;;;;;;16.37;12.30;;;13.90;99.90;;;;;;5025003;28;20237;-51
2022/10/30 09:21:23;;;;;;;16.70;14.07;;;13.80;99.90;;;;;;5025824;28;20213;-51
2022/10/30 09:23:50;;;;;;;17.00;15.13;;;13.80;99.90;;;;;;5020056;28;20221;-52
2022/10/30 09:26:17;;;;;;;16.73;14.03;;;14.00;99.90;;;;;;5022820;28;20288;-51
2022/10/30 09:28:44;;;;;;;17.10;13.47;;;14.20;99.90;;;;;;5028397;28;20199;-51
2022/10/30 09:31:11;;;;;;;18.23;14.17;;;14.50;99.90;;;;;;5025331;28;20205;-51
2022/10/30 09:33:39;;;;;;;20.07;14.30;;;14.60;99.90;;;;;;5030109;28;20202;-50
2022/10/30 09:36:07;;;;;;;14.30;12.47;;;14.70;99.90;;;;;;5025552;28;20234;-50
2022/10/30 09:38:34;;;;;;;15.07;12.83;;;14.80;99.90;;;;;;5020489;28;20253;-54
2022/10/30 09:41:22;;;;;;;14.70;12.90;;;14.80;99.90;;;;;;5025952;28;20576;-52
2022/10/30 09:44:07;;;;;;;14.57;12.53;;;14.80;99.90;;;;;;5017501;28;20622;-50
2022/10/30 09:46:49;;;;;;;17.47;13.83;;;14.80;99.90;;;;;;5025976;28;20236;-51
2022/10/30 09:49:51;;;;;;;18.80;16.43;;;14.70;99.90;;;;;;5023913;28;20216;-51
2022/10/30 09:52:27;;;;;;;15.30;12.60;;;14.70;99.90;;;;;;5019423;28;20207;-51
2022/10/30 09:55:02;;;;;;;15.37;13.53;;;14.80;99.90;;;;;;5016041;28;20226;-51
2022/10/30 09:57:36;;;;;;;18.27;13.73;;;14.60;99.90;;;;;;5021464;28;20207;-51
2022/10/30 10:00:09;;;;;;;14.23;12.57;;;14.60;99.90;;;;;;5021914;28;20203;-51
2022/10/30 10:02:38;;;;;;;17.03;14.37;;;14.70;99.90;;;;;;5016919;28;20570;-51
2022/10/30 10:05:17;;;;;;;15.00;13.40;;;14.80;99.90;;;;;;5023688;28;20219;-51
2022/10/30 10:07:47;;;;;;;16.30;13.77;;;14.80;99.90;;;;;;5020321;28;20684;-51
2022/10/30 10:10:20;;;;;;;18.87;14.60;;;14.90;99.90;;;;;;5021129;28;20261;-52
2022/10/30 10:12:49;;;;;;;17.13;13.70;;;15.20;99.90;;;;;;5021984;28;20218;-50
2022/10/30 10:15:29;;;;;;;23.77;18.27;;;15.40;99.90;;;;;;5021496;28;20222;-50
2022/10/30 10:17:58;;;;;;;22.37;16.30;;;15.80;99.90;;;;;;5023438;28;20209;-49
2022/10/30 10:20:33;;;;;;;21.77;17.97;;;16.10;99.90;;;;;;5020418;28;20199;-52
2022/10/30 10:23:04;;;;;;;32.23;20.53;;;16.40;99.90;;;;;;5020958;28;20563;-50
2022/10/30 10:25:32;;;;;;;34.93;20.10;;;16.50;99.90;;;;;;5021199;28;20225;-51
2022/10/30 10:28:11;;;;;;;25.60;19.63;;;16.50;99.90;;;;;;5021521;28;20203;-51
2022/10/30 10:30:47;;;;;;;28.00;19.17;;;16.50;99.90;;;;;;5021007;28;20626;-51
2022/10/30 10:33:26;;;;;;;30.00;20.85;;;16.50;99.90;;;;;;5020189;28;20813;-51
2022/10/30 10:36:11;;;;;;;25.03;19.87;;;16.40;99.90;;;;;;5026027;28;20232;-50
2022/10/30 10:39:08;;;;;;;24.20;17.47;;;16.20;99.90;;;;;;5019644;28;20226;-51
2022/10/30 10:41:53;;;;;;;20.97;17.70;;;16.10;99.90;;;;;;5024938;28;20695;-52
2022/10/30 10:44:30;;;;;;;23.17;16.77;;;16.10;99.90;;;;;;5024250;28;21473;-52
2022/10/30 10:47:16;;;;;;;24.07;18.30;;;16.00;99.90;;;;;;5021833;28;20618;-51
2022/10/30 10:49:58;;;;;;;21.87;17.97;;;16.00;99.90;;;;;;5020470;28;20222;-51
2022/10/30 10:52:35;;;;;;;24.90;20.87;;;16.10;99.90;;;;;;5024479;28;20689;-51
2022/10/30 10:55:05;;;;;;;21.53;18.57;;;16.20;99.90;;;;;;5022789;28;20280;-51
2022/10/30 10:57:36;;;;;;;19.67;17.10;;;16.40;99.90;;;;;;5024773;28;20195;-51
2022/10/30 11:00:06;;;;;;;24.77;17.57;;;16.10;99.90;;;;;;5025795;28;20279;-51
2022/10/30 11:02:40;;;;;;;22.07;16.00;;;16.10;99.90;;;;;;5031717;28;20198;-51
2022/10/30 11:05:14;;;;;;;15.50;13.87;;;16.20;99.90;;;;;;5029192;28;20269;-51
2022/10/30 11:07:47;;;;;;;16.93;15.23;;;16.20;99.90;;;;;;5029960;28;20197;-51
2022/10/30 11:10:17;;;;;;;17.80;15.93;;;16.20;99.90;;;;;;5029638;28;20294;-51
2022/10/30 11:12:44;;;;;;;17.10;15.30;;;16.20;99.90;;;;;;5028661;28;20202;-51
2022/10/30 11:15:29;;;;;;;18.67;16.10;;;16.20;99.90;;;;;;5029729;28;20276;-51
2022/10/30 11:18:01;;;;;;;21.83;19.27;;;16.10;99.90;;;;;;5019745;28;20206;-51
2022/10/30 11:20:37;;;;;;;23.97;21.00;;;16.10;99.90;;;;;;5029852;28;20248;-51
2022/10/30 11:23:38;;;;;;;25.30;20.77;;;16.10;99.90;;;;;;5029579;28;20285;-51
2022/10/30 11:26:24;;;;;;;30.23;20.63;;;16.00;99.90;;;;;;5019786;28;20305;-50
2022/10/30 11:28:57;;;;;;;23.00;18.23;;;15.80;99.90;;;;;;5024436;28;20198;-50
2022/10/30 11:31:33;;;;;;;27.30;19.97;;;15.70;99.90;;;;;;5018531;28;20191;-51
2022/10/30 11:34:13;;;;;;;29.07;22.70;;;15.70;99.90;;;;;;5026746;28;20292;-50
2022/10/30 11:36:40;;;;;;;23.63;19.27;;;15.70;99.90;;;;;;5024167;28;20246;-51
2022/10/30 11:39:12;;;;;;;25.93;21.43;;;15.60;99.90;;;;;;5010598;28;20215;-51
2022/10/30 11:41:39;;;;;;;23.63;18.37;;;15.70;99.90;;;;;;5026109;28;20205;-51
2022/10/30 11:44:06;;;;;;;21.90;18.93;;;15.70;99.90;;;;;;5029136;28;20194;-51
2022/10/30 11:46:35;;;;;;;22.50;18.60;;;15.60;99.90;;;;;;5026555;28;20218;-50
2022/10/30 11:49:02;;;;;;;146.27;84.23;;;15.50;99.90;;;;;;5029408;28;20253;-52
2022/10/30 11:51:37;;;;;;;37.30;29.13;;;15.50;99.90;;;;;;5025886;28;20195;-51
2022/10/30 11:54:05;;;;;;;31.73;23.83;;;15.50;99.90;;;;;;5029475;28;20260;-51
2022/10/30 11:56:35;;;;;;;44.20;31.83;;;15.40;99.90;;;;;;5029240;28;20218;-51
2022/10/30 11:59:04;;;;;;;25.60;18.17;;;15.50;99.90;;;;;;5028522;28;20739;-52
2022/10/30 12:01:34;;;;;;;37.63;30.77;;;15.40;99.90;;;;;;5026041;28;20195;-50
2022/10/30 12:04:15;;;;;;;37.93;29.97;;;15.30;99.90;;;;;;5026488;28;20249;-50
2022/10/30 12:06:43;;;;;;;41.00;28.93;;;15.30;99.90;;;;;;5013863;28;20345;-51
2022/10/30 12:09:15;;;;;;;29.67;25.17;;;15.20;99.90;;;;;;5024780;28;20256;-51
2022/10/30 12:11:44;;;;;;;36.03;29.40;;;15.10;99.90;;;;;;5032902;28;20202;-50
2022/10/30 12:14:18;;;;;;;28.83;22.70;;;15.20;99.90;;;;;;5024737;28;20210;-50
2022/10/30 12:16:47;;;;;;;26.47;22.20;;;15.30;99.90;;;;;;5031304;28;20762;-51
2022/10/30 12:19:16;;;;;;;22.77;18.97;;;15.40;99.90;;;;;;5013569;28;20250;-50
2022/10/30 12:21:46;;;;;;;23.07;19.67;;;15.40;99.90;;;;;;5019751;28;20670;-51
2022/10/30 12:24:18;;;;;;;32.10;27.60;;;15.30;99.90;;;;;;5025150;28;20665;-51
2022/10/30 12:26:51;;;;;;;20.97;16.23;;;15.40;99.90;;;;;;5021297;28;20258;-51
2022/10/30 12:29:20;;;;;;;18.37;15.13;;;15.40;99.90;;;;;;5020997;28;20198;-51
2022/10/30 12:31:54;;;;;;;17.97;15.17;;;15.50;99.90;;;;;;5024385;28;20191;-51
2022/10/30 12:34:31;;;;;;;17.40;13.83;;;15.50;99.90;;;;;;5032282;28;20315;-51
2022/10/30 12:37:07;;;;;;;15.90;14.23;;;15.60;99.90;;;;;;5032756;28;20198;-50
2022/10/30 12:39:49;;;;;;;15.93;14.43;;;15.70;99.90;;;;;;5032573;28;20210;-50